createdAt,value
2019-03-12T00:02:10.709Z,102211.81
2019-03-12T00:05:33.790Z,102215.91
2019-03-12T00:08:56.994Z,102216.02
2019-03-12T00:12:20.152Z,102217.09
2019-03-12T00:15:43.620Z,102217.63
2019-03-12T00:19:07.425Z,102229.34
2019-03-12T00:22:30.750Z,102231.17
2019-03-12T00:25:53.917Z,102221.56
2019-03-12T00:29:17.005Z,102208.39
2019-03-12T00:32:40.298Z,102198.30
2019-03-12T00:36:03.704Z,102185.44
2019-03-12T00:39:26.934Z,102190.21
2019-03-12T00:42:50.098Z,102190.38
2019-03-12T00:46:13.265Z,102195.84
2019-03-12T00:49:36.431Z,102199.48
2019-03-12T00:52:59.507Z,102202.20
2019-03-12T00:56:22.707Z,102200.81
2019-03-12T00:59:45.959Z,102200.05
2019-03-12T01:03:09.038Z,102195.64
2019-03-12T01:06:32.122Z,102187.89
2019-03-12T01:09:55.294Z,102189.00
2019-03-12T01:13:18.405Z,102186.56
2019-03-12T01:16:41.563Z,102182.70
2019-03-12T01:20:06.804Z,102173.91
2019-03-12T01:23:30.184Z,102170.48
2019-03-12T01:26:53.286Z,102172.87
2019-03-12T01:30:16.882Z,102174.61
2019-03-12T01:33:39.995Z,102174.38
2019-03-12T01:37:03.147Z,102180.52
2019-03-12T01:40:26.329Z,102177.17
2019-03-12T01:43:49.723Z,102173.77
2019-03-12T01:47:12.840Z,102167.17
2019-03-12T01:50:35.925Z,102157.93
2019-03-12T01:53:59.071Z,102156.06
2019-03-12T01:57:22.242Z,102153.13
2019-03-12T02:00:45.358Z,102145.88
2019-03-12T02:04:08.459Z,102137.23
2019-03-12T02:07:31.555Z,102132.59
2019-03-12T02:10:54.774Z,102120.23
2019-03-12T02:14:28.602Z,102108.17
2019-03-12T02:17:51.808Z,102107.63
2019-03-12T02:21:14.978Z,102106.45
2019-03-12T02:24:38.163Z,102090.80
2019-03-12T02:28:01.259Z,102085.41
2019-03-12T02:31:24.479Z,102088.94
2019-03-12T02:34:47.808Z,102083.72
2019-03-12T02:38:10.956Z,102071.70
2019-03-12T02:41:34.183Z,102070.92
2019-03-12T02:44:57.406Z,102062.39
2019-03-12T02:48:20.778Z,102063.03
2019-03-12T02:51:44.057Z,102051.63
2019-03-12T02:55:07.454Z,102059.39
2019-03-12T02:58:30.824Z,102058.97
2019-03-12T03:01:53.998Z,102058.97
2019-03-12T03:05:17.377Z,102050.50
2019-03-12T03:08:40.469Z,102042.75
2019-03-12T03:12:03.724Z,102038.02
2019-03-12T03:15:31.490Z,102041.33
2019-03-12T03:18:54.603Z,102035.13
2019-03-12T03:22:17.645Z,102039.29
2019-03-12T03:25:41.064Z,102027.62
2019-03-12T03:29:04.140Z,102028.38
2019-03-12T03:32:27.353Z,102025.59
2019-03-12T03:35:50.712Z,102023.31
2019-03-12T03:39:13.810Z,102015.72
2019-03-12T03:42:36.914Z,102009.64
2019-03-12T03:46:00.051Z,102002.64
2019-03-12T03:49:23.148Z,101995.63
2019-03-12T03:52:46.457Z,101997.83
2019-03-12T03:56:09.483Z,101994.20
2019-03-12T03:59:32.544Z,101985.91
2019-03-12T04:02:55.677Z,101989.23
2019-03-12T04:06:18.843Z,101988.05
2019-03-12T04:09:41.996Z,101981.45
2019-03-12T04:13:05.093Z,101972.83
2019-03-12T04:16:28.209Z,101968.59
2019-03-12T04:19:51.623Z,101966.50
2019-03-12T04:23:16.275Z,101967.47
2019-03-12T04:26:39.535Z,101959.78
2019-03-12T04:30:02.780Z,101959.23
2019-03-12T04:34:26.316Z,101961.41
2019-03-12T04:37:49.419Z,101960.13
2019-03-12T04:41:12.791Z,101953.06
2019-03-12T04:44:35.898Z,101944.89
2019-03-12T04:47:59.179Z,101930.55
2019-03-12T04:51:22.306Z,101923.66
2019-03-12T04:54:45.342Z,101912.72
2019-03-12T04:58:08.602Z,101907.33
2019-03-12T05:01:31.707Z,101904.34
2019-03-12T05:04:54.890Z,101901.48
2019-03-12T05:08:17.978Z,101898.50
2019-03-12T05:11:41.081Z,101894.46
2019-03-12T05:15:07.212Z,101889.61
2019-03-12T05:18:30.452Z,101888.13
2019-03-12T05:21:53.639Z,101886.52
2019-03-12T05:25:16.979Z,101883.98
2019-03-12T05:28:40.038Z,101870.13
2019-03-12T05:32:03.160Z,101870.81
2019-03-12T05:35:26.242Z,101866.38
2019-03-12T05:38:49.289Z,101857.55
2019-03-12T05:42:12.368Z,101855.44
2019-03-12T05:45:35.502Z,101857.02
2019-03-12T05:48:58.581Z,101847.03
2019-03-12T05:52:21.933Z,101847.52
2019-03-12T05:55:45.087Z,101840.94
2019-03-12T05:59:08.142Z,101834.71
2019-03-12T06:02:31.434Z,101835.75
2019-03-12T06:05:54.556Z,101829.31
2019-03-12T06:09:29.763Z,101815.33
2019-03-12T06:12:42.845Z,101812.47
2019-03-12T06:16:06.161Z,101814.19
2019-03-12T06:19:31.975Z,101808.39
2019-03-12T06:22:55.067Z,101803.88
2019-03-12T06:26:18.296Z,101804.55
2019-03-12T06:29:41.389Z,101801.33
2019-03-12T06:33:12.153Z,101795.95
2019-03-12T06:36:57.786Z,101781.88
2019-03-12T06:40:39.047Z,101774.23
2019-03-12T06:44:22.244Z,101773.75
2019-03-12T06:48:03.321Z,101770.49
2019-03-12T06:51:52.018Z,101757.62
2019-03-12T06:55:25.619Z,101748.27
2019-03-12T06:59:07.868Z,101727.10
2019-03-12T07:02:49.108Z,101743.91
2019-03-12T07:06:21.703Z,101736.52
2019-03-12T07:10:07.362Z,101738.16
2019-03-12T07:13:53.074Z,101749.27
2019-03-12T07:17:22.242Z,101741.64
2019-03-12T07:20:59.567Z,101745.59
2019-03-12T07:25:00.574Z,101742.56
2019-03-12T07:28:30.503Z,101739.38
2019-03-12T07:32:19.055Z,101725.17
2019-03-12T07:35:58.814Z,101716.19
2019-03-12T07:39:53.826Z,101698.57
2019-03-12T07:43:27.805Z,101672.55
2019-03-12T07:47:11.447Z,101649.41
2019-03-12T07:50:42.752Z,101643.67
2019-03-12T07:54:13.682Z,101644.92
2019-03-12T07:57:59.794Z,101646.36
2019-03-12T08:01:42.593Z,101637.84
2019-03-12T08:05:37.379Z,101620.55
2019-03-12T08:09:13.095Z,101606.73
2019-03-12T08:12:56.377Z,101576.74
2019-03-12T08:16:37.728Z,101579.37
2019-03-12T08:20:38.472Z,101575.55
2019-03-12T08:24:23.939Z,101583.06
2019-03-12T08:27:54.905Z,101567.45
2019-03-12T08:31:33.810Z,101564.53
2019-03-12T08:35:23.342Z,101547.55
2019-03-12T08:39:04.343Z,101534.61
2019-03-12T08:42:35.775Z,101520.59
2019-03-12T08:46:09.954Z,101514.07
2019-03-12T08:49:52.801Z,101510.39
2019-03-12T08:53:24.144Z,101510.11
2019-03-12T08:57:15.929Z,101495.69
2019-03-12T09:01:01.208Z,101502.38
2019-03-12T09:04:53.011Z,101491.03
2019-03-12T09:08:34.440Z,101479.72
2019-03-12T09:12:12.600Z,101477.11
2019-03-12T09:15:56.376Z,101466.59
2019-03-12T09:19:45.178Z,101460.52
2019-03-12T09:23:34.555Z,101436.20
2019-03-12T09:27:11.007Z,101435.92
2019-03-12T09:30:45.916Z,101417.34
2019-03-12T09:34:45.790Z,101406.98
2019-03-12T09:38:15.835Z,101398.98
2019-03-12T09:41:58.599Z,101381.20
2019-03-12T09:45:47.331Z,101383.98
2019-03-12T09:49:27.322Z,101370.92
2019-03-12T09:53:15.600Z,101361.67
2019-03-12T09:56:58.312Z,101356.91
2019-03-12T10:00:39.916Z,101347.89
2019-03-12T10:04:15.695Z,101340.09
2019-03-12T10:07:58.542Z,101308.53
2019-03-12T10:11:44.480Z,101301.20
2019-03-12T10:15:30.629Z,101292.08
2019-03-12T10:19:12.110Z,101280.86
2019-03-12T10:22:56.746Z,101270.51
2019-03-12T10:26:41.760Z,101262.83
2019-03-12T10:30:16.764Z,101249.38
2019-03-12T10:34:08.373Z,101237.41
2019-03-12T10:37:44.230Z,101218.58
2019-03-12T10:41:22.018Z,101207.08
2019-03-12T10:45:04.856Z,101225.67
2019-03-12T10:48:29.057Z,101195.70
2019-03-12T10:51:52.302Z,101189.53
2019-03-12T10:55:15.419Z,101183.40
2019-03-12T10:58:38.703Z,101169.09
2019-03-12T11:02:01.945Z,101154.59
2019-03-12T11:05:25.415Z,101142.72
2019-03-12T11:08:48.987Z,101133.13
2019-03-12T11:12:12.094Z,101134.08
2019-03-12T11:15:35.206Z,101127.48
2019-03-12T11:18:58.447Z,101129.34
2019-03-12T11:22:21.748Z,101130.70
2019-03-12T11:25:45.028Z,101114.07
2019-03-12T11:29:09.386Z,101111.17
2019-03-12T11:32:33.484Z,101105.98
2019-03-12T11:35:56.763Z,101097.28
2019-03-12T11:39:19.907Z,101093.92
2019-03-12T11:42:43.180Z,101062.54
2019-03-12T11:46:06.728Z,101064.10
2019-03-12T11:49:30.288Z,101060.55
2019-03-12T11:52:57.443Z,101042.09
2019-03-12T11:56:18.791Z,101063.00
2019-03-12T11:59:42.085Z,101030.86
2019-03-12T12:03:05.420Z,101035.91
2019-03-12T12:06:28.722Z,101022.40
2019-03-12T12:09:52.182Z,100996.55
2019-03-12T12:13:15.544Z,100988.99
2019-03-12T12:16:38.701Z,100978.78
2019-03-12T12:20:01.850Z,100972.58
2019-03-12T12:23:25.391Z,100974.56
2019-03-12T12:26:48.616Z,100957.33
2019-03-12T12:30:14.777Z,100959.78
2019-03-12T12:33:38.025Z,100951.31
2019-03-12T12:37:01.494Z,100927.95
2019-03-12T12:40:24.684Z,100924.84
2019-03-12T12:43:48.018Z,100925.85
2019-03-12T12:47:11.331Z,100903.30
2019-03-12T12:50:34.586Z,100885.58
2019-03-12T12:53:57.698Z,100865.16
2019-03-12T12:57:21.306Z,100863.44
2019-03-12T13:00:44.779Z,100854.83
2019-03-12T13:04:07.924Z,100831.48
2019-03-12T13:07:31.296Z,100819.91
2019-03-12T13:10:54.520Z,100793.45
2019-03-12T13:14:17.729Z,100784.99
2019-03-12T13:17:41.221Z,100768.16
2019-03-12T13:21:04.362Z,100777.47
2019-03-12T13:24:27.574Z,100751.09
2019-03-12T13:27:50.704Z,100744.92
2019-03-12T13:31:13.871Z,100740.07
2019-03-12T13:34:37.730Z,100719.59
2019-03-12T13:38:01.010Z,100706.31
2019-03-12T13:41:24.216Z,100712.74
2019-03-12T13:44:47.686Z,100700.34
2019-03-12T13:48:11.305Z,100685.95
2019-03-12T13:51:34.371Z,100677.27
2019-03-12T13:54:57.805Z,100657.37
2019-03-12T13:58:20.926Z,100664.96
2019-03-12T14:01:44.210Z,100657.16
2019-03-12T14:05:07.734Z,100621.14
2019-03-12T14:08:31.007Z,100623.60
2019-03-12T14:11:54.186Z,100613.28
2019-03-12T14:15:21.509Z,100601.86
2019-03-12T14:18:44.869Z,100590.81
2019-03-12T14:22:08.959Z,100577.47
2019-03-12T14:25:32.125Z,100557.73
2019-03-12T14:28:55.585Z,100550.88
2019-03-12T14:32:18.670Z,100545.16
2019-03-12T14:35:51.586Z,100524.14
2019-03-12T14:39:08.681Z,100524.27
2019-03-12T14:42:33.709Z,100507.58
2019-03-12T14:45:57.650Z,100491.30
2019-03-12T14:49:20.771Z,100481.48
2019-03-12T14:52:48.384Z,100470.28
2019-03-12T14:56:11.766Z,100467.41
2019-03-12T14:59:35.263Z,100466.28
2019-03-12T15:02:58.408Z,100441.41
2019-03-12T15:06:21.575Z,100423.69
2019-03-12T15:09:44.840Z,100410.67
2019-03-12T15:13:07.964Z,100406.11
2019-03-12T15:16:31.165Z,100400.06
2019-03-12T15:19:54.382Z,100390.27
2019-03-12T15:23:17.508Z,100377.55
2019-03-12T15:26:42.108Z,100374.92
2019-03-12T15:30:10.680Z,100352.61
2019-03-12T15:33:33.995Z,100347.16
2019-03-12T15:36:57.125Z,100339.80
2019-03-12T15:40:20.612Z,100329.32
2019-03-12T15:43:43.899Z,100309.20
2019-03-12T15:47:08.793Z,100298.36
2019-03-12T15:50:34.528Z,100293.15
2019-03-12T15:53:57.264Z,100277.89
2019-03-12T15:57:20.367Z,100255.70
2019-03-12T16:00:43.432Z,100244.32
2019-03-12T16:04:07.689Z,100228.17
2019-03-12T16:07:31.105Z,100210.88
2019-03-12T16:10:58.410Z,100209.98
2019-03-12T16:14:19.462Z,100183.25
2019-03-12T16:17:42.776Z,100184.48
2019-03-12T16:21:05.989Z,100187.84
2019-03-12T16:24:29.408Z,100175.19
2019-03-12T16:27:54.939Z,100177.39
2019-03-12T16:31:18.083Z,100154.15
2019-03-12T16:34:42.745Z,100138.41
2019-03-12T16:38:07.052Z,100139.86
2019-03-12T16:41:30.418Z,100125.16
2019-03-12T16:44:53.704Z,100120.86
2019-03-12T16:48:16.908Z,100099.28
2019-03-12T16:51:40.076Z,100109.56
2019-03-12T16:55:03.665Z,100120.33
2019-03-12T16:58:27.245Z,100116.45
2019-03-12T17:01:50.389Z,100105.48
2019-03-12T17:05:14.346Z,100095.86
2019-03-12T17:08:37.529Z,100087.77
2019-03-12T17:12:00.867Z,100077.10
2019-03-12T17:15:24.006Z,100064.84
2019-03-12T17:18:47.614Z,100060.27
2019-03-12T17:22:10.783Z,100050.25
2019-03-12T17:25:34.566Z,100028.05
2019-03-12T17:28:58.142Z,100035.03
2019-03-12T17:32:21.489Z,100005.13
2019-03-12T17:35:45.020Z,99998.00
2019-03-12T17:39:08.423Z,99987.70
2019-03-12T17:42:33.734Z,99974.83
2019-03-12T17:45:56.953Z,99949.48
2019-03-12T17:49:20.467Z,99959.55
2019-03-12T17:52:43.722Z,99947.17
2019-03-12T17:56:06.972Z,99954.03
2019-03-12T17:59:30.283Z,99918.60
2019-03-12T18:02:53.491Z,99917.02
2019-03-12T18:06:16.593Z,99917.75
2019-03-12T18:09:39.695Z,99904.67
2019-03-12T18:13:02.881Z,99884.15
2019-03-12T18:16:26.062Z,99883.20
2019-03-12T18:19:49.528Z,99857.53
2019-03-12T18:23:12.745Z,99865.27
2019-03-12T18:26:36.046Z,99855.95
2019-03-12T18:29:59.278Z,99860.05
2019-03-12T18:33:22.460Z,99844.47
2019-03-12T18:36:46.262Z,99842.66
2019-03-12T18:40:13.442Z,99840.92
2019-03-12T18:43:37.575Z,99804.70
2019-03-12T18:47:00.840Z,99792.05
2019-03-12T18:50:24.414Z,99785.39
2019-03-12T18:53:47.694Z,99803.19
2019-03-12T18:57:10.884Z,99781.22
2019-03-12T19:00:34.028Z,99779.86
2019-03-12T19:03:57.260Z,99780.72
2019-03-12T19:07:20.530Z,99792.19
2019-03-12T19:10:43.729Z,99805.84
2019-03-12T19:14:08.380Z,99811.21
2019-03-12T19:17:31.970Z,99795.60
2019-03-12T19:20:55.811Z,99799.51
2019-03-12T19:24:19.272Z,99818.64
2019-03-12T19:27:42.865Z,99790.23
2019-03-12T19:31:25.954Z,99813.97
2019-03-12T19:34:49.957Z,99810.79
2019-03-12T19:38:13.454Z,99806.52
2019-03-12T19:41:39.774Z,99807.50
2019-03-12T19:45:03.880Z,99788.77
2019-03-12T19:48:28.018Z,99796.97
2019-03-12T19:51:52.173Z,99764.17
2019-03-12T19:55:18.916Z,99771.70
2019-03-12T19:58:42.348Z,99757.72
2019-03-12T20:02:15.908Z,99743.09
2019-03-12T20:05:34.029Z,99743.89
2019-03-12T20:08:57.505Z,99746.52
2019-03-12T20:13:40.243Z,99719.83
2019-03-12T20:18:09.098Z,99724.62
2019-03-12T20:22:38.377Z,99736.60
2019-03-12T20:27:08.062Z,99721.25
2019-03-12T20:32:00.912Z,99725.41
2019-03-12T20:36:18.859Z,99720.28
2019-03-12T20:40:46.566Z,99717.42
2019-03-12T20:45:20.675Z,99726.37
2019-03-12T20:49:58.753Z,99711.78
2019-03-12T20:54:21.918Z,99713.45
2019-03-12T20:58:45.747Z,99734.54
2019-03-12T21:03:12.840Z,99810.91
2019-03-12T21:07:37.469Z,99868.98
2019-03-12T21:12:30.748Z,99905.14
2019-03-12T21:16:36.835Z,99908.76
2019-03-12T21:21:34.362Z,99954.64
2019-03-12T21:25:31.739Z,99973.89
2019-03-12T21:29:54.156Z,99986.45
2019-03-12T21:33:17.279Z,99993.60
2019-03-12T21:36:40.472Z,100035.35
2019-03-12T21:40:06.471Z,100025.42
2019-03-12T21:43:30.201Z,100036.22
2019-03-12T21:46:53.340Z,100053.31
2019-03-12T21:50:16.565Z,100058.22
2019-03-12T21:53:40.166Z,100065.20
2019-03-12T21:57:03.409Z,100078.27
2019-03-12T22:00:26.549Z,100072.02
2019-03-12T22:03:49.875Z,100097.32
2019-03-12T22:07:13.096Z,100086.48
2019-03-12T22:10:36.239Z,100092.52
2019-03-12T22:13:59.475Z,100097.89
2019-03-12T22:17:22.654Z,100109.20
2019-03-12T22:20:45.889Z,100111.88
2019-03-12T22:24:09.165Z,100118.41
2019-03-12T22:27:32.382Z,100135.41
2019-03-12T22:30:55.504Z,100130.02
2019-03-12T22:34:18.886Z,100135.65
2019-03-12T22:37:42.152Z,100138.97
2019-03-12T22:41:05.244Z,100150.55
2019-03-12T22:44:28.541Z,100158.28
2019-03-12T22:47:51.688Z,100159.47
2019-03-12T22:51:14.852Z,100158.16
2019-03-12T22:54:38.263Z,100162.23
2019-03-12T22:58:01.468Z,100166.52
2019-03-12T23:01:43.282Z,100177.86
2019-03-12T23:05:26.571Z,100184.25
2019-03-12T23:09:08.548Z,100187.97
2019-03-12T23:12:33.660Z,100186.06
2019-03-12T23:15:57.179Z,100199.11
2019-03-12T23:19:20.591Z,100190.48
2019-03-12T23:22:45.691Z,100193.53
2019-03-12T23:26:08.955Z,100215.34
2019-03-12T23:29:32.204Z,100206.90
2019-03-12T23:32:55.534Z,100216.52
2019-03-12T23:36:18.903Z,100225.53
2019-03-12T23:39:42.610Z,100211.86
2019-03-12T23:43:05.860Z,100222.30
2019-03-12T23:46:29.054Z,100232.37
2019-03-12T23:49:52.232Z,100237.88
2019-03-12T23:53:15.495Z,100239.16
2019-03-12T23:56:38.827Z,100251.04
